OYCFL EDDH-EKCH
Flight info
| Callsign | OYCFL |
|---|---|
| Flight time | 0h 58m |
| Altitude | 19000 |
| Route | LUGEG3G LUGEG P605 GESKA/N0213F180 Z711 MONAK |
| Aircraft | C414/L-SBDFGRY/S |
Departure
| Time | 2026-04-26 18:01 |
|---|---|
| Airport | Hamburg Helmut Schmidt Airport (EDDH) |
Arrival
| Time | 2026-04-26 18:59 |
|---|---|
| Airport | Copenhagen Kastrup Airport (EKCH) |
| Time | Latitude | Longitude | Altitude | Speed | Heading |
|---|---|---|---|---|---|
| 2026-04-26 17:26 | 53.62667 | 9.98744 | 46 ft | 0 kts | 63° |
| 2026-04-26 17:51 | 53.62676 | 9.98778 | 46 ft | 0 kts | 70° |
| 2026-04-26 17:51 | 53.62696 | 9.98842 | 46 ft | 9 kts | 28° |
| 2026-04-26 17:51 | 53.62747 | 9.98829 | 46 ft | 8 kts | 343° |
| 2026-04-26 17:51 | 53.62795 | 9.98796 | 46 ft | 6 kts | 5° |
| 2026-04-26 17:52 | 53.62827 | 9.98831 | 46 ft | 4 kts | 47° |
| 2026-04-26 17:52 | 53.62827 | 9.98832 | 45 ft | 0 kts | 48° |
| 2026-04-26 17:52 | 53.62869 | 9.98913 | 46 ft | 12 kts | 52° |
| 2026-04-26 17:53 | 53.62918 | 9.99014 | 45 ft | 10 kts | 50° |
| 2026-04-26 17:53 | 53.62948 | 9.99078 | 45 ft | 10 kts | 51° |
| 2026-04-26 17:53 | 53.62993 | 9.99167 | 46 ft | 10 kts | 49° |
| 2026-04-26 17:54 | 53.63090 | 9.99292 | 46 ft | 5 kts | 15° |
| 2026-04-26 17:54 | 53.63093 | 9.99293 | 46 ft | 0 kts | 14° |
| 2026-04-26 17:55 | 53.63100 | 9.99296 | 46 ft | 3 kts | 16° |
| 2026-04-26 17:56 | 53.63124 | 9.99308 | 46 ft | 4 kts | 13° |
| 2026-04-26 17:56 | 53.63143 | 9.99315 | 46 ft | 0 kts | 13° |
| 2026-04-26 17:58 | 53.63264 | 9.99354 | 48 ft | 12 kts | 1° |
| 2026-04-26 17:59 | 53.63337 | 9.99335 | 47 ft | 0 kts | 331° |
| 2026-04-26 17:59 | 53.63355 | 9.99318 | 47 ft | 17 kts | 332° |
| 2026-04-26 18:00 | 53.63611 | 9.99097 | 46 ft | 62 kts | 333° |
| 2026-04-26 18:00 | 53.64051 | 9.98716 | 110 ft | 76 kts | 331° |
| 2026-04-26 18:00 | 53.64545 | 9.98212 | 225 ft | 89 kts | 326° |
| 2026-04-26 18:00 | 53.65104 | 9.97663 | 427 ft | 94 kts | 330° |
| 2026-04-26 18:01 | 53.65690 | 9.97245 | 745 ft | 93 kts | 339° |
| 2026-04-26 18:01 | 53.66338 | 9.96908 | 973 ft | 100 kts | 342° |
| 2026-04-26 18:01 | 53.67002 | 9.96608 | 1276 ft | 97 kts | 341° |
| 2026-04-26 18:01 | 53.67686 | 9.96312 | 1465 ft | 100 kts | 344° |
| 2026-04-26 18:02 | 53.68344 | 9.96073 | 1705 ft | 98 kts | 343° |
| 2026-04-26 18:02 | 53.68781 | 9.95867 | 1827 ft | 98 kts | 336° |
| 2026-04-26 18:02 | 53.69549 | 9.95049 | 1980 ft | 107 kts | 332° |
| 2026-04-26 18:02 | 53.70295 | 9.94551 | 2003 ft | 118 kts | 335° |
| 2026-04-26 18:03 | 53.71064 | 9.93957 | 2149 ft | 128 kts | 333° |
| 2026-04-26 18:03 | 53.71912 | 9.93301 | 2298 ft | 136 kts | 334° |
| 2026-04-26 18:03 | 53.72795 | 9.92603 | 2448 ft | 144 kts | 333° |
| 2026-04-26 18:03 | 53.73715 | 9.91887 | 2596 ft | 151 kts | 333° |
| 2026-04-26 18:04 | 53.74697 | 9.91152 | 2755 ft | 153 kts | 334° |
| 2026-04-26 18:04 | 53.75666 | 9.90412 | 2944 ft | 153 kts | 332° |
| 2026-04-26 18:04 | 53.76657 | 9.89698 | 3130 ft | 157 kts | 334° |
| 2026-04-26 18:05 | 53.78667 | 9.88234 | 3497 ft | 160 kts | 334° |
| 2026-04-26 18:05 | 53.79769 | 9.88259 | 3671 ft | 168 kts | 25° |
| 2026-04-26 18:05 | 53.80626 | 9.89598 | 3856 ft | 169 kts | 47° |
| 2026-04-26 18:05 | 53.81405 | 9.91099 | 4038 ft | 170 kts | 46° |
| 2026-04-26 18:06 | 53.82175 | 9.92606 | 4225 ft | 168 kts | 48° |
| 2026-04-26 18:06 | 53.82935 | 9.94100 | 4405 ft | 167 kts | 48° |
| 2026-04-26 18:06 | 53.83689 | 9.95584 | 4597 ft | 166 kts | 47° |
| 2026-04-26 18:06 | 53.84433 | 9.97081 | 4779 ft | 166 kts | 47° |
| 2026-04-26 18:07 | 53.85176 | 9.98584 | 4964 ft | 166 kts | 47° |
| 2026-04-26 18:07 | 53.85916 | 10.00088 | 5143 ft | 166 kts | 48° |
| 2026-04-26 18:07 | 53.86651 | 10.01602 | 5325 ft | 166 kts | 48° |
| 2026-04-26 18:07 | 53.87134 | 10.02608 | 5441 ft | 166 kts | 48° |
| 2026-04-26 18:08 | 53.88106 | 10.04640 | 5680 ft | 165 kts | 48° |
| 2026-04-26 18:08 | 53.88830 | 10.06151 | 5861 ft | 165 kts | 47° |
| 2026-04-26 18:08 | 53.89554 | 10.07657 | 6043 ft | 165 kts | 47° |
| 2026-04-26 18:08 | 53.90272 | 10.09172 | 6224 ft | 164 kts | 47° |
| 2026-04-26 18:09 | 53.90983 | 10.10688 | 6415 ft | 164 kts | 47° |
| 2026-04-26 18:09 | 53.91688 | 10.12206 | 6593 ft | 164 kts | 47° |
| 2026-04-26 18:09 | 53.92387 | 10.13728 | 6771 ft | 163 kts | 47° |
| 2026-04-26 18:09 | 53.93079 | 10.15252 | 6941 ft | 163 kts | 47° |
| 2026-04-26 18:10 | 53.93766 | 10.16775 | 7113 ft | 163 kts | 47° |
| 2026-04-26 18:10 | 53.94449 | 10.18306 | 7282 ft | 162 kts | 47° |
| 2026-04-26 18:10 | 53.95127 | 10.19837 | 7456 ft | 162 kts | 47° |
| 2026-04-26 18:10 | 53.95803 | 10.21370 | 7629 ft | 162 kts | 47° |
| 2026-04-26 18:11 | 53.96466 | 10.22887 | 7799 ft | 162 kts | 47° |
| 2026-04-26 18:11 | 53.97142 | 10.24446 | 7977 ft | 162 kts | 47° |
| 2026-04-26 18:11 | 53.97807 | 10.25985 | 8158 ft | 162 kts | 47° |
| 2026-04-26 18:11 | 53.98460 | 10.27510 | 8330 ft | 162 kts | 47° |
| 2026-04-26 18:12 | 53.99115 | 10.29059 | 8508 ft | 161 kts | 48° |
| 2026-04-26 18:12 | 53.99768 | 10.30608 | 8688 ft | 161 kts | 48° |
| 2026-04-26 18:12 | 54.00418 | 10.32161 | 8870 ft | 161 kts | 48° |
| 2026-04-26 18:12 | 54.01064 | 10.33714 | 9053 ft | 161 kts | 48° |
| 2026-04-26 18:13 | 54.01705 | 10.35266 | 9236 ft | 161 kts | 48° |
| 2026-04-26 18:13 | 54.02345 | 10.36827 | 9421 ft | 161 kts | 48° |
| 2026-04-26 18:13 | 54.02982 | 10.38392 | 9606 ft | 161 kts | 48° |
| 2026-04-26 18:13 | 54.03402 | 10.39432 | 9729 ft | 161 kts | 48° |
| 2026-04-26 18:14 | 54.04250 | 10.41531 | 9980 ft | 161 kts | 47° |
| 2026-04-26 18:14 | 54.04891 | 10.43091 | 10132 ft | 163 kts | 47° |
| 2026-04-26 18:14 | 54.05560 | 10.44719 | 10139 ft | 172 kts | 47° |
| 2026-04-26 18:14 | 54.06258 | 10.46413 | 10145 ft | 178 kts | 47° |
| 2026-04-26 18:15 | 54.06978 | 10.48152 | 10147 ft | 182 kts | 47° |
| 2026-04-26 18:15 | 54.07712 | 10.49920 | 10148 ft | 184 kts | 47° |
| 2026-04-26 18:15 | 54.08429 | 10.51711 | 10148 ft | 187 kts | 51° |
| 2026-04-26 18:15 | 54.09081 | 10.53630 | 10213 ft | 185 kts | 53° |
| 2026-04-26 18:16 | 54.09690 | 10.55500 | 10404 ft | 177 kts | 53° |
| 2026-04-26 18:16 | 54.10839 | 10.59096 | 10772 ft | 169 kts | 53° |
| 2026-04-26 18:16 | 54.11437 | 10.60784 | 10964 ft | 163 kts | 45° |
| 2026-04-26 18:17 | 54.12108 | 10.62322 | 11157 ft | 161 kts | 46° |
| 2026-04-26 18:17 | 54.12742 | 10.63894 | 11342 ft | 161 kts | 47° |
| 2026-04-26 18:17 | 54.13362 | 10.65480 | 11536 ft | 160 kts | 47° |
| 2026-04-26 18:17 | 54.13974 | 10.67056 | 11734 ft | 159 kts | 47° |
| 2026-04-26 18:18 | 54.14584 | 10.68625 | 11923 ft | 158 kts | 47° |
| 2026-04-26 18:18 | 54.15189 | 10.70187 | 12125 ft | 158 kts | 47° |
| 2026-04-26 18:18 | 54.15794 | 10.71750 | 12325 ft | 157 kts | 47° |
| 2026-04-26 18:18 | 54.16400 | 10.73309 | 12527 ft | 157 kts | 47° |
| 2026-04-26 18:19 | 54.17002 | 10.74866 | 12733 ft | 157 kts | 47° |
| 2026-04-26 18:19 | 54.17603 | 10.76419 | 12938 ft | 156 kts | 47° |
| 2026-04-26 18:19 | 54.18201 | 10.77966 | 13144 ft | 156 kts | 47° |
| 2026-04-26 18:19 | 54.18798 | 10.79511 | 13351 ft | 155 kts | 47° |
| 2026-04-26 18:20 | 54.19386 | 10.81031 | 13555 ft | 155 kts | 47° |
| 2026-04-26 18:20 | 54.19980 | 10.82573 | 13765 ft | 155 kts | 47° |
| 2026-04-26 18:20 | 54.20574 | 10.84110 | 13977 ft | 155 kts | 47° |
| 2026-04-26 18:20 | 54.20975 | 10.85151 | 14119 ft | 155 kts | 46° |
| 2026-04-26 18:21 | 54.21723 | 10.87093 | 14359 ft | 155 kts | 46° |
| 2026-04-26 18:21 | 54.22336 | 10.88682 | 14557 ft | 155 kts | 46° |
| 2026-04-26 18:21 | 54.22931 | 10.90230 | 14750 ft | 156 kts | 46° |
| 2026-04-26 18:21 | 54.23526 | 10.91778 | 14944 ft | 156 kts | 46° |
| 2026-04-26 18:22 | 54.24122 | 10.93327 | 15131 ft | 156 kts | 46° |
| 2026-04-26 18:22 | 54.24717 | 10.94876 | 15324 ft | 156 kts | 46° |
| 2026-04-26 18:22 | 54.25310 | 10.96422 | 15520 ft | 156 kts | 46° |
| 2026-04-26 18:22 | 54.25905 | 10.97973 | 15737 ft | 156 kts | 46° |
| 2026-04-26 18:23 | 54.26499 | 10.99523 | 15940 ft | 156 kts | 46° |
| 2026-04-26 18:23 | 54.27092 | 11.01072 | 16140 ft | 156 kts | 46° |
| 2026-04-26 18:23 | 54.27687 | 11.02624 | 16341 ft | 156 kts | 46° |
| 2026-04-26 18:23 | 54.28281 | 11.04177 | 16543 ft | 156 kts | 46° |
| 2026-04-26 18:24 | 54.28876 | 11.05732 | 16757 ft | 156 kts | 46° |
| 2026-04-26 18:24 | 54.29462 | 11.07265 | 16948 ft | 156 kts | 46° |
| 2026-04-26 18:24 | 54.30055 | 11.08820 | 17154 ft | 156 kts | 46° |
| 2026-04-26 18:24 | 54.30649 | 11.10373 | 17359 ft | 156 kts | 46° |
| 2026-04-26 18:25 | 54.31242 | 11.11929 | 17572 ft | 156 kts | 46° |
| 2026-04-26 18:25 | 54.31835 | 11.13484 | 17783 ft | 156 kts | 46° |
| 2026-04-26 18:25 | 54.32428 | 11.15040 | 17994 ft | 156 kts | 46° |
| 2026-04-26 18:25 | 54.33021 | 11.16599 | 18209 ft | 156 kts | 46° |
| 2026-04-26 18:26 | 54.33613 | 11.18154 | 18421 ft | 156 kts | 45° |
| 2026-04-26 18:26 | 54.34331 | 11.19421 | 18626 ft | 144 kts | 25° |
| 2026-04-26 18:26 | 54.35114 | 11.20511 | 18812 ft | 146 kts | 29° |
| 2026-04-26 18:26 | 54.35873 | 11.21675 | 19000 ft | 146 kts | 30° |
| 2026-04-26 18:27 | 54.36623 | 11.22857 | 19188 ft | 146 kts | 31° |
| 2026-04-26 18:27 | 54.37387 | 11.24062 | 19272 ft | 155 kts | 31° |
| 2026-04-26 18:27 | 54.38210 | 11.25366 | 19287 ft | 167 kts | 32° |
| 2026-04-26 18:27 | 54.39073 | 11.26741 | 19282 ft | 176 kts | 33° |
| 2026-04-26 18:28 | 54.40001 | 11.28224 | 19283 ft | 184 kts | 33° |
| 2026-04-26 18:28 | 54.40938 | 11.29722 | 19289 ft | 189 kts | 33° |
| 2026-04-26 18:28 | 54.41899 | 11.31262 | 19277 ft | 188 kts | 33° |
| 2026-04-26 18:28 | 54.42860 | 11.32801 | 19281 ft | 189 kts | 33° |
| 2026-04-26 18:29 | 54.43824 | 11.34342 | 19275 ft | 190 kts | 33° |
| 2026-04-26 18:29 | 54.44794 | 11.35897 | 19277 ft | 191 kts | 33° |
| 2026-04-26 18:29 | 54.45764 | 11.37447 | 19280 ft | 191 kts | 33° |
| 2026-04-26 18:29 | 54.46739 | 11.39006 | 19278 ft | 191 kts | 33° |
| 2026-04-26 18:30 | 54.47714 | 11.40567 | 19280 ft | 192 kts | 33° |
| 2026-04-26 18:30 | 54.48694 | 11.42134 | 19281 ft | 192 kts | 33° |
| 2026-04-26 18:30 | 54.49672 | 11.43702 | 19282 ft | 192 kts | 33° |
| 2026-04-26 18:30 | 54.50647 | 11.45269 | 19282 ft | 192 kts | 33° |
| 2026-04-26 18:31 | 54.51623 | 11.46839 | 19279 ft | 192 kts | 33° |
| 2026-04-26 18:31 | 54.52599 | 11.48409 | 19279 ft | 192 kts | 33° |
| 2026-04-26 18:31 | 54.53562 | 11.49961 | 19279 ft | 192 kts | 33° |
| 2026-04-26 18:31 | 54.54535 | 11.51531 | 19278 ft | 192 kts | 33° |
| 2026-04-26 18:32 | 54.55507 | 11.53100 | 19276 ft | 192 kts | 33° |
| 2026-04-26 18:32 | 54.56473 | 11.54662 | 19276 ft | 192 kts | 33° |
| 2026-04-26 18:32 | 54.57426 | 11.56203 | 19276 ft | 192 kts | 33° |
| 2026-04-26 18:32 | 54.58397 | 11.57776 | 19276 ft | 192 kts | 33° |
| 2026-04-26 18:33 | 54.59369 | 11.59351 | 19277 ft | 192 kts | 33° |
| 2026-04-26 18:33 | 54.60341 | 11.60927 | 19277 ft | 192 kts | 33° |
| 2026-04-26 18:33 | 54.61300 | 11.62485 | 19272 ft | 192 kts | 33° |
| 2026-04-26 18:33 | 54.62271 | 11.64063 | 19272 ft | 192 kts | 33° |
| 2026-04-26 18:34 | 54.63226 | 11.65616 | 19272 ft | 192 kts | 33° |
| 2026-04-26 18:34 | 54.64197 | 11.67195 | 19271 ft | 192 kts | 33° |
| 2026-04-26 18:34 | 54.65166 | 11.68775 | 19271 ft | 191 kts | 33° |
| 2026-04-26 18:34 | 54.66134 | 11.70353 | 19271 ft | 191 kts | 33° |
| 2026-04-26 18:35 | 54.67102 | 11.71932 | 19271 ft | 191 kts | 33° |
| 2026-04-26 18:35 | 54.68072 | 11.73515 | 19272 ft | 192 kts | 33° |
| 2026-04-26 18:35 | 54.69040 | 11.75097 | 19272 ft | 192 kts | 33° |
| 2026-04-26 18:35 | 54.70010 | 11.76681 | 19270 ft | 192 kts | 33° |
| 2026-04-26 18:36 | 54.70983 | 11.78270 | 19272 ft | 192 kts | 33° |
| 2026-04-26 18:36 | 54.71949 | 11.79852 | 19272 ft | 192 kts | 33° |
| 2026-04-26 18:36 | 54.72918 | 11.81439 | 19271 ft | 191 kts | 33° |
| 2026-04-26 18:36 | 54.73885 | 11.83023 | 19271 ft | 191 kts | 33° |
| 2026-04-26 18:37 | 54.74850 | 11.84606 | 19271 ft | 191 kts | 33° |
| 2026-04-26 18:37 | 54.75815 | 11.86190 | 19270 ft | 191 kts | 33° |
| 2026-04-26 18:37 | 54.76768 | 11.87757 | 19275 ft | 191 kts | 33° |
| 2026-04-26 18:37 | 54.77730 | 11.89339 | 19272 ft | 191 kts | 33° |
| 2026-04-26 18:38 | 54.78695 | 11.90924 | 19274 ft | 191 kts | 33° |
| 2026-04-26 18:38 | 54.79659 | 11.92510 | 19270 ft | 191 kts | 33° |
| 2026-04-26 18:38 | 54.80620 | 11.94094 | 19271 ft | 191 kts | 33° |
| 2026-04-26 18:38 | 54.81582 | 11.95681 | 19270 ft | 191 kts | 33° |
| 2026-04-26 18:39 | 54.82543 | 11.97271 | 19268 ft | 191 kts | 33° |
| 2026-04-26 18:39 | 54.83501 | 11.98856 | 19262 ft | 191 kts | 33° |
| 2026-04-26 18:39 | 54.84479 | 12.00469 | 19116 ft | 198 kts | 33° |
| 2026-04-26 18:39 | 54.85510 | 12.02145 | 18871 ft | 208 kts | 33° |
| 2026-04-26 18:40 | 54.86585 | 12.03872 | 18638 ft | 213 kts | 33° |
| 2026-04-26 18:40 | 54.87682 | 12.05628 | 18361 ft | 216 kts | 33° |
| 2026-04-26 18:40 | 54.88790 | 12.07400 | 18072 ft | 217 kts | 33° |
| 2026-04-26 18:40 | 54.89904 | 12.09181 | 17784 ft | 218 kts | 33° |
| 2026-04-26 18:41 | 54.90642 | 12.10361 | 17595 ft | 218 kts | 33° |
| 2026-04-26 18:41 | 54.91756 | 12.12146 | 17308 ft | 218 kts | 34° |
| 2026-04-26 18:41 | 54.92868 | 12.13930 | 17047 ft | 217 kts | 33° |
| 2026-04-26 18:41 | 54.93973 | 12.15709 | 16764 ft | 216 kts | 33° |
| 2026-04-26 18:42 | 54.95077 | 12.17489 | 16482 ft | 216 kts | 33° |
| 2026-04-26 18:42 | 54.96173 | 12.19260 | 16202 ft | 215 kts | 33° |
| 2026-04-26 18:42 | 54.97227 | 12.21119 | 15920 ft | 217 kts | 38° |
| 2026-04-26 18:42 | 54.98246 | 12.23046 | 15645 ft | 215 kts | 36° |
| 2026-04-26 18:43 | 54.99310 | 12.24856 | 15372 ft | 213 kts | 34° |
| 2026-04-26 18:43 | 55.00386 | 12.26621 | 15099 ft | 212 kts | 34° |
| 2026-04-26 18:43 | 55.01448 | 12.28381 | 14831 ft | 209 kts | 34° |
| 2026-04-26 18:43 | 55.02479 | 12.30107 | 14561 ft | 203 kts | 34° |
| 2026-04-26 18:44 | 55.03490 | 12.31797 | 14291 ft | 199 kts | 33° |
| 2026-04-26 18:44 | 55.04484 | 12.33455 | 14018 ft | 197 kts | 33° |
| 2026-04-26 18:44 | 55.05469 | 12.35100 | 13715 ft | 195 kts | 33° |
| 2026-04-26 18:44 | 55.06446 | 12.36734 | 13419 ft | 194 kts | 34° |
| 2026-04-26 18:45 | 55.07415 | 12.38357 | 13130 ft | 193 kts | 34° |
| 2026-04-26 18:45 | 55.08382 | 12.39977 | 12840 ft | 192 kts | 34° |
| 2026-04-26 18:45 | 55.09344 | 12.41591 | 12554 ft | 191 kts | 34° |
| 2026-04-26 18:45 | 55.10290 | 12.43178 | 12272 ft | 191 kts | 34° |
| 2026-04-26 18:46 | 55.11243 | 12.44778 | 11993 ft | 190 kts | 34° |
| 2026-04-26 18:46 | 55.12195 | 12.46377 | 11715 ft | 189 kts | 34° |
| 2026-04-26 18:46 | 55.13141 | 12.47968 | 11440 ft | 189 kts | 34° |
| 2026-04-26 18:46 | 55.14087 | 12.49557 | 11166 ft | 187 kts | 33° |
| 2026-04-26 18:47 | 55.15193 | 12.50370 | 10905 ft | 167 kts | 352° |
| 2026-04-26 18:47 | 55.16272 | 12.49759 | 10566 ft | 164 kts | 333° |
| 2026-04-26 18:47 | 55.17352 | 12.49034 | 10235 ft | 167 kts | 338° |
| 2026-04-26 18:47 | 55.18467 | 12.48429 | 9871 ft | 168 kts | 340° |
| 2026-04-26 18:48 | 55.19585 | 12.47881 | 9496 ft | 166 kts | 340° |
| 2026-04-26 18:48 | 55.20692 | 12.47346 | 9122 ft | 164 kts | 340° |
| 2026-04-26 18:48 | 55.21770 | 12.46721 | 8753 ft | 162 kts | 332° |
| 2026-04-26 18:48 | 55.22773 | 12.45828 | 8389 ft | 162 kts | 330° |
| 2026-04-26 18:49 | 55.23769 | 12.44913 | 8028 ft | 162 kts | 330° |
| 2026-04-26 18:49 | 55.24768 | 12.43995 | 7672 ft | 162 kts | 330° |
| 2026-04-26 18:49 | 55.25761 | 12.43071 | 7318 ft | 162 kts | 329° |
| 2026-04-26 18:49 | 55.26748 | 12.42126 | 6970 ft | 162 kts | 329° |
| 2026-04-26 18:50 | 55.27740 | 12.41177 | 6621 ft | 163 kts | 329° |
| 2026-04-26 18:50 | 55.28735 | 12.40230 | 6249 ft | 163 kts | 330° |
| 2026-04-26 18:50 | 55.29842 | 12.39786 | 5876 ft | 166 kts | 353° |
| 2026-04-26 18:50 | 55.30983 | 12.39741 | 5519 ft | 167 kts | 354° |
| 2026-04-26 18:51 | 55.32162 | 12.39707 | 5156 ft | 167 kts | 354° |
| 2026-04-26 18:51 | 55.33323 | 12.39674 | 4788 ft | 167 kts | 354° |
| 2026-04-26 18:51 | 55.34470 | 12.39642 | 4424 ft | 167 kts | 354° |
| 2026-04-26 18:51 | 55.35638 | 12.39612 | 4057 ft | 168 kts | 354° |
| 2026-04-26 18:52 | 55.36806 | 12.39585 | 3689 ft | 168 kts | 354° |
| 2026-04-26 18:52 | 55.37978 | 12.39598 | 3323 ft | 170 kts | 2° |
| 2026-04-26 18:52 | 55.39130 | 12.40142 | 3000 ft | 171 kts | 13° |
| 2026-04-26 18:52 | 55.40235 | 12.40777 | 2829 ft | 165 kts | 13° |
| 2026-04-26 18:53 | 55.41319 | 12.41395 | 2639 ft | 162 kts | 13° |
| 2026-04-26 18:53 | 55.42390 | 12.42000 | 2451 ft | 161 kts | 14° |
| 2026-04-26 18:53 | 55.43453 | 12.42605 | 2261 ft | 160 kts | 14° |
| 2026-04-26 18:53 | 55.44518 | 12.43210 | 2083 ft | 164 kts | 14° |
| 2026-04-26 18:54 | 55.45626 | 12.43817 | 1995 ft | 166 kts | 13° |
| 2026-04-26 18:54 | 55.46723 | 12.44427 | 1993 ft | 164 kts | 14° |
| 2026-04-26 18:54 | 55.47808 | 12.45036 | 1994 ft | 163 kts | 14° |
| 2026-04-26 18:54 | 55.48891 | 12.45637 | 1993 ft | 163 kts | 13° |
| 2026-04-26 18:55 | 55.49955 | 12.46341 | 1990 ft | 165 kts | 27° |
| 2026-04-26 18:55 | 55.50871 | 12.47575 | 1989 ft | 166 kts | 36° |
| 2026-04-26 18:55 | 55.51764 | 12.48877 | 1975 ft | 167 kts | 37° |
| 2026-04-26 18:55 | 55.52668 | 12.50248 | 1791 ft | 177 kts | 39° |
| 2026-04-26 18:56 | 55.53602 | 12.51695 | 1537 ft | 179 kts | 38° |
| 2026-04-26 18:56 | 55.54526 | 12.53128 | 1294 ft | 173 kts | 39° |
| 2026-04-26 18:56 | 55.55379 | 12.54443 | 1063 ft | 146 kts | 38° |
| 2026-04-26 18:56 | 55.56064 | 12.55502 | 870 ft | 120 kts | 39° |
| 2026-04-26 18:57 | 55.56637 | 12.56378 | 712 ft | 100 kts | 39° |
| 2026-04-26 18:57 | 55.56984 | 12.56880 | 609 ft | 96 kts | 36° |
| 2026-04-26 18:57 | 55.57652 | 12.57874 | 523 ft | 94 kts | 43° |
| 2026-04-26 18:57 | 55.58143 | 12.58644 | 416 ft | 94 kts | 41° |
| 2026-04-26 18:58 | 55.58629 | 12.59408 | 295 ft | 93 kts | 43° |
| 2026-04-26 18:58 | 55.59108 | 12.60168 | 156 ft | 92 kts | 41° |
| 2026-04-26 18:58 | 55.59578 | 12.60896 | 48 ft | 87 kts | 41° |
| 2026-04-26 18:58 | 55.60013 | 12.61564 | 21 ft | 78 kts | 41° |
| 2026-04-26 18:59 | 55.60394 | 12.62166 | 12 ft | 69 kts | 41° |
| 2026-04-26 18:59 | 55.60693 | 12.62629 | 15 ft | 31 kts | 41° |
| 2026-04-26 18:59 | 55.60890 | 12.62833 | 13 ft | 34 kts | 18° |
| 2026-04-26 18:59 | 55.61114 | 12.62925 | 12 ft | 30 kts | 22° |
| 2026-04-26 19:00 | 55.61273 | 12.63150 | 12 ft | 29 kts | 43° |
| 2026-04-26 19:00 | 55.61418 | 12.63376 | 12 ft | 27 kts | 40° |
| 2026-04-26 19:00 | 55.61552 | 12.63585 | 12 ft | 24 kts | 43° |
| 2026-04-26 19:00 | 55.61675 | 12.63775 | 12 ft | 27 kts | 41° |
| 2026-04-26 19:01 | 55.61832 | 12.64012 | 12 ft | 25 kts | 43° |
| 2026-04-26 19:01 | 55.61974 | 12.64160 | 12 ft | 23 kts | 26° |
| 2026-04-26 19:01 | 55.62108 | 12.64270 | 12 ft | 20 kts | 25° |
| 2026-04-26 19:01 | 55.62220 | 12.64359 | 10 ft | 12 kts | 14° |
| 2026-04-26 19:02 | 55.62267 | 12.64266 | 10 ft | 12 kts | 281° |
| 2026-04-26 19:02 | 55.62274 | 12.64094 | 10 ft | 15 kts | 271° |
| 2026-04-26 19:02 | 55.62272 | 12.63871 | 12 ft | 24 kts | 267° |
| 2026-04-26 19:02 | 55.62269 | 12.63675 | 12 ft | 24 kts | 269° |
| 2026-04-26 19:03 | 55.62264 | 12.63311 | 12 ft | 20 kts | 268° |
| 2026-04-26 19:03 | 55.62280 | 12.63115 | 12 ft | 9 kts | 305° |
| 2026-04-26 19:03 | 55.62288 | 12.63013 | 12 ft | 10 kts | 221° |
| 2026-04-26 19:03 | 55.62227 | 12.62964 | 12 ft | 9 kts | 199° |
| 2026-04-26 19:04 | 55.62199 | 12.62949 | 12 ft | 3 kts | 179° |
| 2026-04-26 19:04 | 55.62191 | 12.62962 | 12 ft | 0 kts | 100° |